createdAt,value
2022-10-18T00:13:52.058Z,27.90
2022-10-18T00:35:18.173Z,26.00
2022-10-18T00:45:28.448Z,25.70
2022-10-18T00:55:36.981Z,25.30
2022-10-18T01:05:49.313Z,24.60
2022-10-18T01:16:01.844Z,24.50
2022-10-18T01:26:24.444Z,24.40
2022-10-18T01:36:36.752Z,24.30
2022-10-18T01:46:45.770Z,24.50
2022-10-18T01:57:01.338Z,24.50
2022-10-18T02:07:17.991Z,24.60
2022-10-18T02:17:28.775Z,24.60
2022-10-18T02:27:35.897Z,24.60
2022-10-18T02:37:45.708Z,24.50
2022-10-18T03:00:51.155Z,24.30
2022-10-18T03:12:09.501Z,24.30
2022-10-18T03:34:45.752Z,24.40
2022-10-18T03:44:52.807Z,24.40
2022-10-18T03:55:01.856Z,24.40
2022-10-18T04:05:09.787Z,24.40
2022-10-18T04:15:18.671Z,24.40
2022-10-18T04:25:25.974Z,24.50
2022-10-18T04:35:34.749Z,24.40
2022-10-18T04:45:43.154Z,24.30
2022-10-18T04:55:59.210Z,24.30
2022-10-18T05:18:33.369Z,24.30
2022-10-18T05:52:36.841Z,24.30
2022-10-18T06:02:44.472Z,24.30
2022-10-18T06:13:05.966Z,24.20
2022-10-18T06:23:34.975Z,24.20
2022-10-18T06:33:46.872Z,24.20
2022-10-18T06:43:54.738Z,24.20
2022-10-18T06:54:17.279Z,24.00
2022-10-18T07:04:25.489Z,23.90
2022-10-18T07:14:34.163Z,23.90
2022-10-18T07:24:41.236Z,23.80
2022-10-18T07:34:54.470Z,23.70
2022-10-18T07:45:01.804Z,23.70
2022-10-18T07:55:11.332Z,23.70
2022-10-18T08:05:18.817Z,23.70
2022-10-18T08:15:27.528Z,23.70
2022-10-18T08:25:37.107Z,23.70
2022-10-18T08:46:20.337Z,23.60
2022-10-18T08:56:29.871Z,23.60
2022-10-18T09:06:47.424Z,23.60
2022-10-18T09:17:06.072Z,23.60
2022-10-18T09:27:19.214Z,23.50
2022-10-18T09:37:33.987Z,23.50
2022-10-18T09:48:19.453Z,23.50
2022-10-18T09:59:05.340Z,23.50
2022-10-18T10:09:22.454Z,23.50
2022-10-18T10:19:38.063Z,23.50
2022-10-18T10:30:09.151Z,23.40
2022-10-18T10:40:28.668Z,23.40
2022-10-18T10:50:53.124Z,23.40
2022-10-18T11:01:25.484Z,23.40
2022-10-18T11:11:42.373Z,23.40
2022-10-18T11:21:55.998Z,23.40
2022-10-18T11:32:15.284Z,23.40
2022-10-18T11:42:35.689Z,23.40
2022-10-18T11:52:54.927Z,23.40
2022-10-18T12:03:21.467Z,23.40
2022-10-18T12:13:44.936Z,23.40
2022-10-18T12:24:05.505Z,23.40
2022-10-18T12:34:36.362Z,23.30
2022-10-18T12:44:45.213Z,23.30
2022-10-18T12:55:06.335Z,23.30
2022-10-18T13:06:02.955Z,23.30
2022-10-18T13:16:35.243Z,23.20
2022-10-18T13:26:59.117Z,23.20
2022-10-18T13:37:26.930Z,23.20
2022-10-18T13:47:39.894Z,23.20
2022-10-18T13:58:00.795Z,23.20
2022-10-18T14:08:17.136Z,23.20
2022-10-18T14:18:36.617Z,23.20
2022-10-18T14:29:00.326Z,23.40
2022-10-18T14:51:54.577Z,23.70
2022-10-18T15:02:32.214Z,23.60
2022-10-18T15:13:08.181Z,23.70
2022-10-18T15:23:28.453Z,23.80
2022-10-18T15:33:37.182Z,23.90
2022-10-18T15:43:44.206Z,23.60
2022-10-18T15:53:57.172Z,23.40
2022-10-18T16:04:07.599Z,23.20
2022-10-18T16:14:16.472Z,23.20
2022-10-18T16:24:24.379Z,23.10
2022-10-18T16:34:58.016Z,22.90
2022-10-18T16:45:05.657Z,23.20
2022-10-18T16:55:22.600Z,23.50
2022-10-18T17:05:32.003Z,23.60
2022-10-18T17:15:42.001Z,23.70
2022-10-18T17:26:04.827Z,23.80
2022-10-18T17:36:16.514Z,23.90
2022-10-18T17:46:24.640Z,24.00
2022-10-18T17:56:34.541Z,23.90
2022-10-18T18:06:42.448Z,23.90
2022-10-18T18:16:51.605Z,23.90
2022-10-18T18:27:02.418Z,23.90
2022-10-18T18:37:14.064Z,23.90
2022-10-18T18:47:24.370Z,23.90
2022-10-18T18:57:33.695Z,24.00
2022-10-18T19:07:42.422Z,23.50
2022-10-18T19:17:52.215Z,23.60
2022-10-18T19:28:03.629Z,23.90
2022-10-18T19:38:12.575Z,23.90
2022-10-18T19:48:20.439Z,23.20
2022-10-18T19:58:29.465Z,22.80
2022-10-18T20:08:38.613Z,22.70
2022-10-18T20:18:47.869Z,23.00
2022-10-18T20:28:58.059Z,23.20
2022-10-18T20:39:08.406Z,23.00
2022-10-18T20:49:17.960Z,23.10
2022-10-18T20:59:45.284Z,23.20
2022-10-18T21:09:52.660Z,23.10
2022-10-18T21:20:01.931Z,22.80
2022-10-18T21:40:19.263Z,23.00
2022-10-18T21:50:26.275Z,23.20
2022-10-18T22:00:35.311Z,23.20
2022-10-18T22:10:42.726Z,23.20
2022-10-18T22:20:59.594Z,23.60
2022-10-18T22:31:07.472Z,24.00
2022-10-18T22:41:16.326Z,24.20
2022-10-18T22:51:23.544Z,24.20
2022-10-18T23:01:32.381Z,24.50
2022-10-18T23:11:40.936Z,24.60
2022-10-18T23:21:52.770Z,26.40
2022-10-18T23:31:59.964Z,29.20
2022-10-18T23:42:08.862Z,30.30
2022-10-18T23:52:15.866Z,30.90
